Time;durP1;ratioP1;P1;durP2;ratioP2;P2;SDS_P1;SDS_P2;PMS_P1;PMS_P2;Temp;Humidity;BMP_temperature;BMP_pressure;BME280_temperature;BME280_humidity;BME280_pressure;Samples;Min_cycle;Max_cycle;Signal;HPM_P1;HPM_P2
2022/08/10 00:01:58;;;;;;;6.20;4.25;;;;;;;26.94;50.28;101164.41;5106706;27;20396;-61
2022/08/10 00:04:24;;;;;;;5.60;4.00;;;;;;;26.90;50.29;101166.00;5107681;28;20451;-61
2022/08/10 00:06:52;;;;;;;6.73;4.57;;;;;;;26.94;50.96;101172.56;5107656;28;20381;-61
2022/08/10 00:09:18;;;;;;;4.85;4.43;;;;;;;26.92;50.82;101168.47;5107662;28;20458;-61
2022/08/10 00:11:43;;;;;;;5.10;4.53;;;;;;;26.95;50.38;101168.75;5107275;28;20878;-61
2022/08/10 00:14:08;;;;;;;4.90;4.40;;;;;;;26.85;50.19;101149.72;5107264;28;20401;-61
2022/08/10 00:16:34;;;;;;;5.13;4.00;;;;;;;26.89;50.41;101164.41;5107431;28;20425;-62
2022/08/10 00:23:25;;;;;;;5.88;4.22;;;;;;;26.78;50.19;101152.69;5106611;27;20805;-61
2022/08/10 00:25:51;;;;;;;4.40;3.87;;;;;;;26.77;50.09;101155.66;5107737;28;20384;-64
2022/08/10 00:28:16;;;;;;;6.33;4.50;;;;;;;26.75;50.10;101164.09;5107706;28;20381;-63
2022/08/10 00:30:42;;;;;;;5.10;4.63;;;;;;;26.69;50.22;101182.28;5106352;28;20389;-61
2022/08/10 00:33:07;;;;;;;5.60;4.82;;;;;;;26.39;50.47;101182.13;5107564;28;20423;-61
2022/08/10 00:35:33;;;;;;;6.60;4.83;;;;;;;26.29;50.71;101186.44;5107516;28;20369;-61
2022/08/10 00:42:29;;;;;;;5.38;4.88;;;;;;;26.16;51.48;101186.09;5093943;27;2103853;-62
2022/08/10 00:44:54;;;;;;;6.87;4.80;;;;;;;26.22;51.33;101198.66;5148618;27;20397;-62
2022/08/10 00:47:20;;;;;;;6.97;5.30;;;;;;;26.00;51.42;101201.47;5148876;27;20945;-61
2022/08/10 00:49:46;;;;;;;5.85;4.97;;;;;;;25.96;51.97;101184.06;5148207;27;20385;-62
2022/08/10 00:52:13;;;;;;;5.93;5.40;;;;;;;26.07;51.91;101196.63;5148717;27;20422;-62
2022/08/10 00:54:41;;;;;;;6.55;5.15;;;;;;;26.05;51.67;101210.47;5148399;27;20380;-62
2022/08/10 00:57:07;;;;;;;6.10;4.82;;;;;;;26.11;51.34;101212.16;5148323;27;20377;-61
2022/08/10 00:59:33;;;;;;;7.13;5.50;;;;;;;26.08;51.59;101209.97;5148845;27;20366;-61
2022/08/10 01:02:00;;;;;;;6.43;5.40;;;;;;;26.12;51.75;101212.97;5148398;27;20409;-61
2022/08/10 01:04:26;;;;;;;6.73;5.30;;;;;;;26.14;51.48;101210.81;5148326;27;20936;-61
2022/08/10 01:07:10;;;;;;;7.70;5.57;;;;;;;26.13;51.62;101220.06;5148243;27;20886;-61
2022/08/10 01:09:58;;;;;;;5.53;4.93;;;;;;;26.02;51.37;101223.75;5148317;27;20383;-61
2022/08/10 01:13:00;;;;;;;5.50;5.00;;;;;;;26.01;51.29;101227.56;5148260;27;20761;-61
2022/08/10 01:15:34;;;;;;;5.78;4.85;;;;;;;26.08;51.09;101218.09;5130642;27;20869;-62
2022/08/10 01:18:06;;;;;;;7.93;5.22;;;;;;;26.08;51.31;101220.00;5148550;27;20937;-62
2022/08/10 01:20:46;;;;;;;6.70;5.88;;;;;;;26.10;51.13;101223.28;5147949;27;20451;-62
2022/08/10 01:23:42;;;;;;;5.80;5.00;;;;;;;26.11;50.54;101225.75;5147828;27;20386;-61
2022/08/10 01:26:25;;;;;;;4.90;4.40;;;;;;;26.16;50.42;101224.13;5147657;27;20388;-60
2022/08/10 01:29:27;;;;;;;5.93;4.40;;;;;;;26.16;50.04;101224.94;5147595;27;20922;-60
2022/08/10 01:31:58;;;;;;;4.80;4.30;;;;;;;26.15;50.03;101222.50;5147881;27;20369;-61
2022/08/10 01:38:07;;;;;;;5.18;4.18;;;;;;;26.17;49.09;101215.72;5066141;28;20929;-61
2022/08/10 01:40:37;;;;;;;4.45;4.03;;;;;;;26.18;48.86;101219.25;5067132;28;20410;-61
2022/08/10 01:43:07;;;;;;;4.63;4.10;;;;;;;26.19;48.23;101220.91;5067126;28;20384;-61
2022/08/10 01:46:50;;;;;;;6.55;4.18;;;;;;;26.16;48.51;101213.25;5066158;28;20395;-61
2022/08/10 01:49:18;;;;;;;4.97;3.88;;;;;;;26.20;48.28;101214.38;5066868;28;20408;-61
2022/08/10 01:51:43;;;;;;;5.85;3.95;;;;;;;26.23;48.39;101220.09;5066867;28;20475;-62
2022/08/10 01:54:11;;;;;;;5.78;4.10;;;;;;;26.26;48.13;101221.47;5067170;28;20480;-61
2022/08/10 01:56:41;;;;;;;4.17;3.77;;;;;;;26.23;47.72;101216.56;5066910;28;20380;-61
2022/08/10 01:59:12;;;;;;;4.45;3.78;;;;;;;26.28;47.72;101213.88;5067130;28;20467;-61
2022/08/10 02:01:42;;;;;;;6.20;3.90;;;;;;;26.29;47.78;101227.22;5066919;28;20391;-62
2022/08/10 02:04:11;;;;;;;6.05;4.10;;;;;;;26.28;48.04;101220.13;5067118;28;20391;-61
2022/08/10 02:06:42;;;;;;;4.85;4.00;;;;;;;26.32;47.82;101223.13;5066733;28;20418;-62
2022/08/10 02:09:10;;;;;;;5.47;3.97;;;;;;;26.37;47.71;101228.59;5066736;28;20384;-62
2022/08/10 02:11:37;;;;;;;4.72;4.10;;;;;;;26.38;47.58;101221.25;5066459;28;20433;-61
2022/08/10 02:14:03;;;;;;;5.25;4.28;;;;;;;26.40;47.61;101221.81;5066603;28;20874;-63
2022/08/10 02:16:31;;;;;;;4.35;3.95;;;;;;;26.37;47.90;101219.66;5066593;28;20809;-62
2022/08/10 02:18:59;;;;;;;4.82;4.43;;;;;;;26.33;47.94;101224.78;5066532;28;20870;-62
2022/08/10 02:21:41;;;;;;;4.57;4.10;;;;;;;26.29;48.46;101215.53;5106630;27;20400;-61
2022/08/10 02:24:12;;;;;;;6.90;4.10;;;;;;;26.36;48.50;101229.66;5107385;28;20399;-61
2022/08/10 02:26:40;;;;;;;6.53;4.40;;;;;;;26.36;48.37;101237.81;5106285;28;20925;-61
2022/08/10 02:29:10;;;;;;;5.65;4.55;;;;;;;26.38;48.73;101226.69;5107240;28;20381;-61
2022/08/10 02:31:38;;;;;;;4.78;4.30;;;;;;;26.36;48.75;101231.59;5107914;28;20393;-61
2022/08/10 02:34:05;;;;;;;5.93;4.67;;;;;;;26.36;48.43;101231.59;5107539;28;20384;-62
2022/08/10 02:36:33;;;;;;;5.50;4.60;;;;;;;26.33;48.38;101222.88;5107499;28;20387;-61
2022/08/10 02:39:03;;;;;;;5.30;4.40;;;;;;;26.35;48.10;101225.34;5107387;28;20389;-60
2022/08/10 02:41:39;;;;;;;5.70;4.68;;;;;;;26.33;47.92;101231.03;5107064;28;20501;-61
2022/08/10 02:44:17;;;;;;;5.53;4.90;;;;;;;26.30;47.88;101225.31;5107252;28;20377;-61
2022/08/10 02:46:52;;;;;;;6.22;4.72;;;;;;;26.27;48.16;101221.22;5107419;28;20387;-61
2022/08/10 02:49:22;;;;;;;7.28;5.40;;;;;;;26.29;48.52;101229.94;5106942;28;20925;-61
2022/08/10 02:52:00;;;;;;;6.53;5.07;;;;;;;26.28;48.53;101233.72;5107413;28;20388;-61
2022/08/10 02:54:32;;;;;;;7.20;5.23;;;;;;;26.29;48.38;101223.69;5106929;28;20447;-61
2022/08/10 02:57:07;;;;;;;5.55;4.80;;;;;;;26.29;48.42;101232.66;5107078;28;20465;-62
2022/08/10 02:59:43;;;;;;;7.38;5.20;;;;;;;26.26;48.36;101221.47;5107258;28;20408;-61
2022/08/10 03:02:18;;;;;;;6.90;5.40;;;;;;;26.30;48.59;101233.47;5106861;28;20380;-61
2022/08/10 03:04:47;;;;;;;6.65;5.15;;;;;;;26.24;48.54;101229.91;5106876;28;20384;-61
2022/08/10 03:07:16;;;;;;;6.68;5.22;;;;;;;26.24;48.63;101232.63;5106932;28;20442;-61
2022/08/10 03:09:44;;;;;;;6.07;5.18;;;;;;;26.25;48.63;101242.41;5106870;28;20369;-61
2022/08/10 03:12:13;;;;;;;7.03;5.00;;;;;;;26.22;48.57;101247.56;5106533;28;20755;-63
2022/08/10 03:16:21;;;;;;;8.82;5.53;;;;;;;26.17;48.85;101248.31;5086378;27;20398;-61
2022/08/10 03:18:49;;;;;;;9.13;5.68;;;;;;;26.18;49.13;101243.69;5087514;28;20397;-61
2022/08/10 03:21:17;;;;;;;6.90;5.57;;;;;;;26.16;49.08;101251.31;5087373;28;20382;-61
2022/08/10 03:23:44;;;;;;;6.55;5.68;;;;;;;26.07;49.42;101250.97;5087293;28;20389;-61
2022/08/10 03:26:11;;;;;;;7.40;6.20;;;;;;;26.08;49.54;101249.91;5087273;28;20382;-61
2022/08/10 03:28:38;;;;;;;8.63;5.68;;;;;;;26.01;49.69;101241.16;5087206;28;20416;-61
2022/08/10 03:31:04;;;;;;;7.15;5.07;;;;;;;26.07;49.74;101262.69;5087056;28;20381;-61
2022/08/10 03:33:34;;;;;;;7.28;5.40;;;;;;;26.07;49.94;101259.13;5086734;28;20600;-63
2022/08/10 03:36:00;;;;;;;5.93;5.15;;;;;;;26.04;49.67;101263.19;5085773;28;20925;-61
2022/08/10 03:38:26;;;;;;;5.80;5.30;;;;;;;25.97;49.83;101256.34;5085105;28;20453;-62
2022/08/10 03:40:54;;;;;;;8.05;5.03;;;;;;;25.97;49.98;101249.00;5086382;28;20378;-61
2022/08/10 03:43:21;;;;;;;11.37;5.10;;;;;;;25.99;49.95;101256.91;5086976;28;20432;-61
2022/08/10 03:45:53;;;;;;;8.13;5.30;;;;;;;25.97;49.99;101259.88;5087075;28;20813;-62
2022/08/10 03:48:20;;;;;;;5.97;5.00;;;;;;;26.01;50.00;101263.69;5085908;28;20413;-61
2022/08/10 03:50:48;;;;;;;8.40;5.00;;;;;;;26.00;49.95;101263.94;5084509;28;20390;-62
2022/08/10 03:53:14;;;;;;;11.80;5.33;;;;;;;26.05;50.03;101272.16;5084351;28;20376;-64
2022/08/10 03:55:40;;;;;;;6.97;4.90;;;;;;;26.01;49.93;101269.13;5083189;28;20414;-60
2022/08/10 03:58:07;;;;;;;7.35;5.40;;;;;;;26.00;50.13;101263.94;5084648;28;20760;-63
2022/08/10 04:00:33;;;;;;;8.63;4.88;;;;;;;26.03;50.14;101280.56;5080065;28;20372;-61
2022/08/10 04:03:03;;;;;;;7.03;5.18;;;;;;;26.02;50.32;101267.22;5064376;28;20419;-61
2022/08/10 04:05:30;;;;;;;7.60;5.32;;;;;;;25.91;50.48;101272.56;5065592;28;20422;-60
2022/08/10 04:07:56;;;;;;;9.10;5.20;;;;;;;26.02;50.37;101269.94;5065671;28;20889;-61
2022/08/10 04:10:21;;;;;;;9.27;5.10;;;;;;;26.08;50.03;101271.63;5066017;28;20395;-60
2022/08/10 04:12:47;;;;;;;8.50;4.70;;;;;;;26.10;50.34;101272.19;5065969;28;20369;-60
2022/08/10 04:15:12;;;;;;;7.53;5.17;;;;;;;26.12;50.21;101276.28;5065894;28;20910;-60
2022/08/10 04:17:38;;;;;;;10.33;4.97;;;;;;;26.11;50.31;101271.13;5065943;28;20951;-60
2022/08/10 04:20:06;;;;;;;6.87;5.23;;;;;;;26.09;50.04;101274.09;5064772;28;20758;-61
2022/08/10 04:22:33;;;;;;;8.57;4.88;;;;;;;26.13;50.08;101272.50;5065533;28;20380;-60
2022/08/10 04:25:02;;;;;;;7.93;4.63;;;;;;;26.17;49.85;101272.78;5065659;28;20460;-61
2022/08/10 04:27:28;;;;;;;18.07;5.80;;;;;;;26.20;49.91;101280.44;5053430;28;20385;-63
2022/08/10 04:29:54;;;;;;;6.00;4.93;;;;;;;26.25;49.92;101279.63;5051795;28;20380;-60
2022/08/10 04:32:22;;;;;;;8.37;5.53;;;;;;;26.26;49.93;101275.84;5052175;28;20412;-60
2022/08/10 04:34:49;;;;;;;10.25;5.38;;;;;;;26.32;49.98;101286.47;5049969;28;20465;-60
2022/08/10 04:37:18;;;;;;;14.90;5.70;;;;;;;26.37;50.05;101277.53;5051717;28;20381;-61
2022/08/10 04:39:44;;;;;;;11.23;5.63;;;;;;;26.39;49.97;101283.53;5051785;28;20416;-59
2022/08/10 04:42:09;;;;;;;14.00;5.70;;;;;;;26.42;49.79;101284.91;5051907;28;20447;-61
2022/08/10 04:44:35;;;;;;;8.77;5.30;;;;;;;26.44;49.59;101285.47;5051855;28;20377;-60
2022/08/10 04:47:00;;;;;;;7.10;5.40;;;;;;;26.45;50.00;101287.94;5052190;28;20902;-60
2022/08/10 04:49:26;;;;;;;13.98;5.80;;;;;;;26.41;49.86;101283.25;5052280;28;20381;-63
2022/08/10 04:51:52;;;;;;;10.30;5.70;;;;;;;26.51;49.90;101288.78;5051731;28;20384;-60
2022/08/10 04:54:17;;;;;;;10.70;5.73;;;;;;;26.48;49.83;101287.38;5050894;28;20917;-61
2022/08/10 04:56:43;;;;;;;9.93;6.50;;;;;;;26.51;49.97;101284.16;5051280;28;20377;-60
2022/08/10 04:59:10;;;;;;;9.57;6.60;;;;;;;26.63;50.16;101291.31;5052272;28;20747;-60
2022/08/10 05:01:37;;;;;;;11.27;6.47;;;;;;;26.67;50.19;101293.25;5051717;28;20373;-59
2022/08/10 05:04:03;;;;;;;10.40;7.72;;;;;;;26.62;49.86;101303.28;5050886;28;20419;-60
2022/08/10 05:06:28;;;;;;;11.32;8.63;;;;;;;26.63;50.23;101303.03;5051474;28;21724;-58
2022/08/10 05:08:54;;;;;;;12.87;9.73;;;;;;;26.65;50.08;101302.72;5052085;28;20381;-59
2022/08/10 05:11:19;;;;;;;10.02;7.88;;;;;;;26.64;50.09;101303.81;5050945;28;20384;-60
2022/08/10 05:13:45;;;;;;;11.07;8.43;;;;;;;26.61;49.97;101299.72;5049598;28;20431;-59
2022/08/10 05:16:10;;;;;;;11.30;8.47;;;;;;;26.61;50.02;101305.16;5049384;28;20417;-59
2022/08/10 05:18:36;;;;;;;12.80;8.27;;;;;;;26.76;49.60;101307.16;5049929;28;20797;-62
2022/08/10 05:21:02;;;;;;;15.37;8.67;;;;;;;26.82;49.26;101302.56;5049882;28;20388;-61
2022/08/10 05:23:27;;;;;;;9.95;8.02;;;;;;;26.94;48.42;101303.16;5049827;28;20383;-60
2022/08/10 05:25:53;;;;;;;9.47;7.13;;;;;;;26.92;48.37;101301.78;5050414;28;20380;-60
2022/08/10 05:29:14;;;;;;;10.32;6.70;;;;;;;27.04;48.21;101310.53;5080576;27;20442;-60
2022/08/10 05:31:39;;;;;;;7.90;6.97;;;;;;;27.08;48.04;101303.47;5081374;28;20403;-60
2022/08/10 05:34:05;;;;;;;8.05;6.72;;;;;;;27.12;47.75;101310.03;5084367;28;20386;-60
2022/08/10 05:36:32;;;;;;;10.97;6.87;;;;;;;27.21;47.33;101308.44;5075306;28;20467;-63
2022/08/10 05:39:00;;;;;;;10.60;7.03;;;;;;;27.36;47.25;101309.59;5069388;28;20378;-60
2022/08/10 05:41:27;;;;;;;11.03;6.90;;;;;;;27.53;46.61;101307.47;5082160;28;20448;-60
2022/08/10 05:43:55;;;;;;;10.25;6.80;;;;;;;27.98;45.43;101307.78;5081761;28;20374;-61
2022/08/10 05:46:20;;;;;;;9.17;6.93;;;;;;;28.36;44.88;101311.84;5082724;28;20818;-60
2022/08/10 05:48:47;;;;;;;9.27;6.80;;;;;;;28.38;45.11;101314.31;5081695;28;20919;-61
2022/08/10 05:51:13;;;;;;;11.85;6.50;;;;;;;28.48;44.69;101310.75;5082275;28;20370;-61
2022/08/10 05:53:38;;;;;;;11.63;7.23;;;;;;;28.30;45.28;101312.13;5078182;28;20764;-60
2022/08/10 05:56:07;;;;;;;11.70;6.93;;;;;;;28.35;45.43;101312.13;5080901;28;20729;-62
2022/08/10 05:58:37;;;;;;;11.00;6.30;;;;;;;28.39;44.79;101300.38;5073756;28;20383;-60
2022/08/10 06:01:11;;;;;;;7.22;5.85;;;;;;;28.32;44.18;101312.66;5070976;28;20378;-59
2022/08/10 06:03:45;;;;;;;8.30;6.50;;;;;;;28.32;44.00;101305.31;5067738;28;20766;-60
2022/08/10 06:06:11;;;;;;;7.38;5.43;;;;;;;28.36;43.52;101298.22;5080486;28;20415;-60
2022/08/10 06:08:40;;;;;;;10.85;5.85;;;;;;;28.49;43.21;101307.75;5066345;28;20461;-60
2022/08/10 06:11:06;;;;;;;8.23;5.32;;;;;;;28.50;42.17;101306.63;5074948;28;20380;-60
2022/08/10 06:16:20;;;;;;;6.72;4.93;;;;;;;28.41;42.03;101321.91;5074043;28;20385;-60
2022/08/10 06:18:46;;;;;;;5.43;4.68;;;;;;;28.20;41.87;101313.78;5071051;28;20942;-60
2022/08/10 06:21:13;;;;;;;6.32;5.18;;;;;;;28.24;41.89;101314.06;5071224;28;20395;-62
2022/08/10 06:23:40;;;;;;;5.87;4.63;;;;;;;28.30;41.05;101323.03;5069868;28;20387;-61
2022/08/10 06:26:06;;;;;;;5.68;4.63;;;;;;;28.44;40.06;101329.56;5067707;28;20886;-60
2022/08/10 06:28:36;;;;;;;6.30;4.47;;;;;;;28.57;39.90;101317.28;5083818;28;20426;-60
2022/08/10 06:31:04;;;;;;;6.55;4.72;;;;;;;28.64;40.12;101314.28;5069961;28;20392;-60
2022/08/10 06:33:32;;;;;;;7.90;4.78;;;;;;;28.62;40.42;101325.47;5069271;28;20412;-60
2022/08/10 06:35:59;;;;;;;5.20;4.70;;;;;;;28.34;40.28;101333.13;5068364;28;20503;-60
2022/08/10 06:38:28;;;;;;;5.13;4.63;;;;;;;28.24;40.24;101321.41;5073869;28;20378;-60
2022/08/10 06:40:57;;;;;;;6.55;4.82;;;;;;;28.32;40.14;101329.03;5066990;28;20394;-60
2022/08/10 06:43:24;;;;;;;6.28;4.25;;;;;;;28.23;40.45;101326.03;5067213;28;20383;-60
2022/08/10 06:45:59;;;;;;;7.38;4.70;;;;;;;28.24;40.54;101330.41;5066626;28;20436;-60
2022/08/10 06:48:34;;;;;;;7.57;4.72;;;;;;;28.28;40.64;101334.22;5066815;28;20414;-60
2022/08/10 06:51:04;;;;;;;9.20;5.05;;;;;;;28.27;40.41;101327.16;5066343;28;20386;-60
2022/08/10 06:53:38;;;;;;;7.40;4.70;;;;;;;28.38;40.26;101330.69;5060863;28;20377;-60
2022/08/10 06:56:17;;;;;;;5.43;4.75;;;;;;;28.42;39.94;101323.56;5057642;28;20390;-60
2022/08/10 06:58:51;;;;;;;5.40;4.90;;;;;;;28.50;40.03;101325.72;5054396;28;20956;-60
2022/08/10 07:01:21;;;;;;;8.57;4.57;;;;;;;28.44;40.39;101329.56;5054618;28;20875;-60
2022/08/10 07:03:59;;;;;;;6.93;4.83;;;;;;;28.31;40.73;101330.13;5052757;28;20754;-60
2022/08/10 07:06:25;;;;;;;6.70;5.03;;;;;;;28.15;41.05;101326.59;5057797;28;20466;-60
2022/08/10 07:08:52;;;;;;;5.72;4.85;;;;;;;28.07;41.27;101327.13;5057418;28;20427;-60
2022/08/10 07:11:19;;;;;;;7.25;5.03;;;;;;;28.04;41.32;101325.78;5061090;28;20402;-61
2022/08/10 07:13:46;;;;;;;6.10;5.22;;;;;;;28.12;41.47;101327.13;5057524;28;20392;-60
2022/08/10 07:16:13;;;;;;;5.65;5.05;;;;;;;28.19;41.22;101319.50;5058072;28;20377;-60
2022/08/10 07:18:41;;;;;;;6.25;4.90;;;;;;;28.30;40.99;101325.75;5055503;28;20372;-60
2022/08/10 07:21:09;;;;;;;8.13;5.47;;;;;;;28.26;40.90;101327.41;5055154;28;20874;-62
2022/08/10 07:23:36;;;;;;;6.65;5.15;;;;;;;28.20;41.13;101332.06;5054653;28;20805;-60
2022/08/10 07:26:02;;;;;;;6.72;5.22;;;;;;;28.25;41.36;101323.84;5052849;28;20440;-60
2022/08/10 07:28:31;;;;;;;7.22;5.40;;;;;;;28.15;41.50;101332.06;5066902;28;20475;-60
2022/08/10 07:30:58;;;;;;;6.50;5.13;;;;;;;28.02;41.81;101325.25;5055096;28;20885;-60
2022/08/10 07:33:27;;;;;;;7.40;5.60;;;;;;;28.14;41.86;101333.94;5053504;28;20968;-61
2022/08/10 07:35:55;;;;;;;7.13;5.45;;;;;;;28.31;41.37;101332.88;5053191;28;20513;-60
2022/08/10 07:38:26;;;;;;;7.68;5.15;;;;;;;28.34;41.52;101329.56;5052308;28;20389;-60
2022/08/10 07:40:53;;;;;;;6.27;5.03;;;;;;;28.36;40.85;101328.22;5056849;28;20387;-60
2022/08/10 07:45:49;;;;;;;5.38;4.85;;;;;;;28.32;40.84;101335.28;5039031;28;20459;-60
2022/08/10 07:48:31;;;;;;;7.83;5.20;;;;;;;28.25;41.25;101329.31;5032322;28;20407;-60
2022/08/10 07:51:00;;;;;;;6.70;4.85;;;;;;;28.24;41.25;101341.31;5034215;28;20447;-60
2022/08/10 07:53:33;;;;;;;8.13;4.93;;;;;;;28.31;41.26;101328.22;5030032;28;20487;-60
2022/08/10 07:56:01;;;;;;;7.07;5.32;;;;;;;28.50;40.97;101338.53;5031218;28;20843;-60
2022/08/10 07:58:35;;;;;;;8.68;5.20;;;;;;;28.56;40.88;101337.50;5028519;28;20391;-60
2022/08/10 08:01:01;;;;;;;6.05;5.38;;;;;;;28.45;40.95;101339.38;5028229;28;20756;-60
2022/08/10 08:03:29;;;;;;;7.27;5.30;;;;;;;28.40;40.90;101339.41;5026944;28;20411;-60
2022/08/10 08:05:56;;;;;;;6.32;5.30;;;;;;;28.41;41.04;101341.84;5034858;28;20383;-60
2022/08/10 08:08:23;;;;;;;7.25;5.65;;;;;;;28.48;40.95;101335.28;5035855;28;20382;-60
2022/08/10 08:10:50;;;;;;;6.25;4.95;;;;;;;28.56;40.85;101324.66;5031462;28;20500;-60
2022/08/10 08:13:19;;;;;;;7.38;5.10;;;;;;;28.49;41.19;101335.00;5034527;28;20409;-60
2022/08/10 08:16:56;;;;;;;7.97;4.97;;;;;;;28.56;40.83;101326.59;5066118;28;20400;-61
2022/08/10 08:19:23;;;;;;;6.95;5.30;;;;;;;28.48;40.77;101327.91;5067423;28;20894;-61
2022/08/10 08:21:50;;;;;;;8.93;5.27;;;;;;;28.73;40.50;101320.78;5066823;28;20471;-61
2022/08/10 08:24:18;;;;;;;6.53;5.13;;;;;;;28.91;40.13;101322.09;5067126;28;20372;-60
2022/08/10 08:26:46;;;;;;;6.53;5.10;;;;;;;28.95;39.79;101329.44;5066986;28;20384;-61
2022/08/10 08:29:13;;;;;;;7.05;4.97;;;;;;;29.02;39.74;101317.41;5066653;28;20472;-60
2022/08/10 08:31:40;;;;;;;7.47;5.43;;;;;;;28.97;39.96;101326.44;5066545;28;20384;-61
2022/08/10 08:36:06;;;;;;;5.55;5.03;;;;;;;29.00;39.66;101322.34;5065847;28;20400;-61
2022/08/10 08:38:35;;;;;;;5.70;5.03;;;;;;;29.16;39.42;101323.94;5066840;28;20400;-60
2022/08/10 08:41:52;;;;;;;6.93;5.10;;;;;;;29.15;39.64;101322.28;5066874;28;20398;-60
2022/08/10 08:44:49;;;;;;;5.38;4.88;;;;;;;29.29;39.12;101320.59;5067121;28;20417;-61
2022/08/10 08:47:23;;;;;;;5.80;4.80;;;;;;;29.62;38.76;101323.69;5066790;28;20376;-60
2022/08/10 08:49:57;;;;;;;6.20;5.03;;;;;;;29.62;38.15;101312.75;5066599;28;20878;-60
2022/08/10 08:55:04;;;;;;;5.72;5.22;;;;;;;29.84;36.92;101311.53;5085833;27;20817;-61
2022/08/10 08:58:00;;;;;;;9.43;5.82;;;;;;;29.89;36.80;101312.31;5086941;28;20390;-60
2022/08/10 09:00:49;;;;;;;5.82;5.22;;;;;;;30.03;36.68;101306.16;5087086;28;20880;-61
2022/08/10 09:03:23;;;;;;;6.55;4.85;;;;;;;30.22;36.56;101311.75;5086111;28;20839;-60
2022/08/10 09:06:03;;;;;;;7.05;4.70;;;;;;;30.39;36.42;101306.66;5065381;28;20997;-61
2022/08/10 09:09:04;;;;;;;6.60;5.03;;;;;;;30.30;36.29;101303.72;5065562;28;21271;-61
2022/08/10 09:11:57;;;;;;;7.25;4.43;;;;;;;30.40;36.19;101308.31;5066892;28;20373;-60
2022/08/10 09:14:29;;;;;;;6.30;4.88;;;;;;;30.35;36.46;101304.81;5067039;28;20395;-61
2022/08/10 09:17:04;;;;;;;4.97;4.47;;;;;;;30.45;35.96;101302.78;5066745;28;20396;-61
2022/08/10 09:19:57;;;;;;;7.20;4.60;;;;;;;30.47;36.06;101307.97;5064548;28;20794;-60
2022/08/10 09:22:28;;;;;;;5.00;4.28;;;;;;;30.36;35.69;101309.16;5046753;28;20420;-60
2022/08/10 09:25:12;;;;;;;8.18;4.78;;;;;;;30.40;35.64;101307.50;5046459;28;20900;-60
2022/08/10 09:27:44;;;;;;;5.45;4.20;;;;;;;30.75;35.10;101300.78;5046339;28;20393;-60
2022/08/10 09:30:15;;;;;;;6.15;4.60;;;;;;;30.73;35.18;101300.28;5044980;28;20833;-61
2022/08/10 09:32:51;;;;;;;6.85;4.40;;;;;;;30.57;35.65;101301.56;5046353;28;20807;-61
2022/08/10 09:35:30;;;;;;;8.00;4.80;;;;;;;30.53;35.88;101303.25;5046451;28;20381;-60
2022/08/10 09:38:16;;;;;;;6.45;4.70;;;;;;;30.62;35.23;101298.78;5046299;28;20428;-61
2022/08/10 09:40:48;;;;;;;6.85;4.60;;;;;;;30.54;35.42;101286.56;5046349;28;20745;-60
2022/08/10 09:43:41;;;;;;;8.40;5.23;;;;;;;30.67;35.30;101298.72;5046075;28;20393;-61
2022/08/10 09:46:21;;;;;;;8.18;4.50;;;;;;;30.44;35.31;101292.13;5046302;28;20442;-60
2022/08/10 09:49:04;;;;;;;6.78;5.00;;;;;;;30.53;35.39;101284.91;5046297;28;20389;-60
2022/08/10 09:51:55;;;;;;;7.22;4.68;;;;;;;30.73;35.00;101288.53;5046305;28;21026;-60
2022/08/10 09:54:47;;;;;;;7.10;4.80;;;;;;;30.63;35.28;101286.69;5046093;28;20579;-60
2022/08/10 09:57:37;;;;;;;6.20;4.35;;;;;;;30.59;35.22;101285.66;5045734;28;20388;-60
2022/08/10 10:00:13;;;;;;;6.80;4.70;;;;;;;30.46;34.87;101281.72;5045711;28;20476;-61
2022/08/10 10:03:02;;;;;;;5.13;4.25;;;;;;;30.46;35.24;101292.66;5046023;28;20472;-60
2022/08/10 10:05:48;;;;;;;5.22;4.40;;;;;;;30.58;35.52;101282.13;5034605;28;20400;-60
2022/08/10 10:08:22;;;;;;;6.82;4.45;;;;;;;30.75;35.22;101284.38;5032276;28;20481;-61
2022/08/10 10:11:02;;;;;;;7.22;4.70;;;;;;;30.88;35.03;101282.84;5032660;28;20452;-59
2022/08/10 10:13:39;;;;;;;5.78;4.50;;;;;;;30.85;34.87;101278.78;5032320;28;20979;-60
2022/08/10 10:16:31;;;;;;;9.32;4.70;;;;;;;30.83;35.31;101280.19;5031120;28;20387;-59
2022/08/10 10:19:23;;;;;;;8.60;4.70;;;;;;;30.78;35.52;101283.00;5032418;28;20482;-59
2022/08/10 10:21:55;;;;;;;5.28;4.53;;;;;;;30.80;35.31;101280.78;5032550;28;20406;-59
2022/08/10 10:24:55;;;;;;;5.72;4.50;;;;;;;30.78;35.62;101281.06;5031989;28;20389;-59
2022/08/10 10:27:33;;;;;;;7.97;4.80;;;;;;;30.84;35.48;101271.66;5032167;28;20765;-59
2022/08/10 10:30:04;;;;;;;5.43;4.80;;;;;;;30.97;35.56;101272.09;5031865;28;20375;-59
2022/08/10 10:33:07;;;;;;;5.10;4.50;;;;;;;31.25;34.96;101271.13;5031754;28;20500;-59
2022/08/10 10:35:53;;;;;;;7.30;4.78;;;;;;;31.33;34.35;101288.84;5019266;28;20409;-59
2022/08/10 10:38:25;;;;;;;8.73;4.82;;;;;;;31.19;34.56;101275.06;5031946;28;20779;-59
2022/08/10 10:41:22;;;;;;;6.35;4.72;;;;;;;31.20;34.31;101265.72;5031734;28;20387;-59
2022/08/10 10:43:54;;;;;;;7.50;4.70;;;;;;;31.45;34.58;101264.53;5031619;28;20780;-59
2022/08/10 10:47:07;;;;;;;6.38;4.90;;;;;;;31.43;34.25;101266.75;5031942;28;20741;-59
2022/08/10 10:49:51;;;;;;;6.60;4.65;;;;;;;31.45;34.67;101258.25;4994944;28;20401;-60
2022/08/10 10:52:28;;;;;;;8.15;5.20;;;;;;;31.55;34.57;101255.38;5031423;28;20400;-61
2022/08/10 10:55:12;;;;;;;5.90;5.32;;;;;;;31.67;34.81;101248.63;5031718;28;20974;-60
2022/08/10 10:57:58;;;;;;;6.13;5.30;;;;;;;31.51;35.01;101248.88;5031605;28;20480;-60
2022/08/10 11:00:28;;;;;;;7.18;5.45;;;;;;;31.51;35.24;101245.31;5031550;28;20450;-59
2022/08/10 11:03:18;;;;;;;7.60;5.45;;;;;;;31.40;35.44;101239.16;5044482;28;20886;-59
2022/08/10 11:05:53;;;;;;;7.05;4.93;;;;;;;31.11;35.15;101234.66;5049505;28;20423;-61
2022/08/10 11:08:23;;;;;;;5.93;5.07;;;;;;;31.04;35.26;101247.88;5050470;28;20396;-60
2022/08/10 11:11:12;;;;;;;6.47;5.20;;;;;;;31.03;35.82;101246.28;5049924;28;20447;-59
2022/08/10 11:13:46;;;;;;;8.93;5.22;;;;;;;30.81;35.90;101242.16;5051268;28;20420;-62
2022/08/10 11:16:17;;;;;;;7.43;5.30;;;;;;;30.59;36.17;101239.16;5050149;28;20392;-60
2022/08/10 11:19:20;;;;;;;5.15;4.68;;;;;;;30.67;35.78;101235.78;5051271;28;20385;-60
2022/08/10 11:21:51;;;;;;;9.15;5.05;;;;;;;30.80;35.96;101236.97;5051164;28;20393;-60
2022/08/10 11:24:38;;;;;;;6.78;5.50;;;;;;;30.68;35.83;101253.81;5051162;28;20486;-60
2022/08/10 11:27:37;;;;;;;5.50;5.00;;;;;;;30.68;35.41;101235.50;5050712;28;20763;-60
2022/08/10 11:30:09;;;;;;;6.53;5.07;;;;;;;30.86;35.25;101236.63;5050963;28;20424;-60
2022/08/10 11:33:00;;;;;;;7.25;4.50;;;;;;;30.78;35.65;101234.53;5050613;28;20463;-59
2022/08/10 11:36:01;;;;;;;5.90;4.45;;;;;;;30.69;35.55;101225.34;5050804;28;20389;-60
2022/08/10 11:38:36;;;;;;;7.00;5.20;;;;;;;30.74;35.93;101224.44;5039271;28;20392;-60
2022/08/10 11:41:32;;;;;;;6.85;4.57;;;;;;;30.74;35.73;101219.81;5050780;28;20767;-61
2022/08/10 11:44:08;;;;;;;8.10;4.60;;;;;;;30.76;35.80;101220.31;5050343;28;20397;-60
2022/08/10 11:46:37;;;;;;;4.63;4.20;;;;;;;30.55;35.59;101197.06;5050596;28;20384;-60
2022/08/10 11:49:12;;;;;;;6.85;4.57;;;;;;;30.52;35.91;101211.34;5050702;28;20438;-60
2022/08/10 11:51:44;;;;;;;5.00;4.50;;;;;;;30.35;35.79;101198.94;5050556;28;20484;-61
2022/08/10 11:54:23;;;;;;;4.93;4.43;;;;;;;30.37;35.88;101198.66;5050430;28;20412;-60
2022/08/10 11:56:52;;;;;;;5.82;4.57;;;;;;;30.40;35.80;101192.63;5050372;28;20373;-62
2022/08/10 12:02:09;;;;;;;5.57;4.50;;;;;;;30.38;36.11;101201.09;5050353;28;20470;-60
2022/08/10 12:04:38;;;;;;;8.15;4.50;;;;;;;30.43;35.84;101194.75;5049991;28;20385;-60
2022/08/10 12:07:07;;;;;;;5.50;4.57;;;;;;;30.49;35.82;101199.88;5050030;28;20369;-59
2022/08/10 12:09:34;;;;;;;6.72;4.40;;;;;;;30.57;35.86;101195.66;5049945;28;20435;-60
2022/08/10 12:12:01;;;;;;;5.85;4.35;;;;;;;30.68;35.93;101199.06;5050210;28;20887;-60
2022/08/10 12:14:45;;;;;;;4.35;3.92;;;;;;;30.81;35.60;101208.47;5050115;28;20419;-60
2022/08/10 12:17:27;;;;;;;7.13;4.50;;;;;;;30.75;35.74;101209.66;5049882;28;20380;-60
2022/08/10 12:20:08;;;;;;;4.30;3.90;;;;;;;30.68;35.88;101208.13;5049827;28;20404;-60